Time;durP1;ratioP1;P1;durP2;ratioP2;P2;SDS_P1;SDS_P2;PMS_P1;PMS_P2;Temp;Humidity;BMP_temperature;BMP_pressure;BME280_temperature;BME280_humidity;BME280_pressure;Samples;Min_cycle;Max_cycle;Signal;HPM_P1;HPM_P2
2022/03/31 00:00:39;;;;;;;11.95;4.40;;;;;;;3.70;61.09;100515.00;5195169;28;20446;-42
2022/03/31 00:03:15;;;;;;;6.72;4.70;;;;;;;3.76;61.23;100524.19;5194977;28;20499;-41
2022/03/31 00:05:49;;;;;;;9.25;4.05;;;;;;;3.73;61.26;100515.75;5192186;28;20838;-41
2022/03/31 00:08:22;;;;;;;8.63;5.40;;;;;;;3.78;61.43;100521.44;5197183;28;20445;-42
2022/03/31 00:10:56;;;;;;;13.65;3.78;;;;;;;3.76;61.22;100518.13;5189972;28;20509;-41
2022/03/31 00:13:30;;;;;;;5.85;4.03;;;;;;;3.76;61.76;100526.78;5199084;28;20504;-42
2022/03/31 00:16:03;;;;;;;7.97;4.13;;;;;;;3.83;61.29;100519.31;5209603;28;20461;-42
2022/03/31 00:18:37;;;;;;;6.75;4.07;;;;;;;3.87;61.50;100515.53;5194721;28;20423;-45
2022/03/31 00:21:10;;;;;;;7.07;3.85;;;;;;;3.90;61.12;100515.31;5198995;28;20893;-42
2022/03/31 00:23:42;;;;;;;5.50;4.47;;;;;;;3.74;61.29;100502.56;5193667;28;20413;-42
2022/03/31 00:26:16;;;;;;;8.40;4.20;;;;;;;3.74;61.38;100506.94;5194039;28;20417;-43
2022/03/31 00:28:49;;;;;;;10.15;5.10;;;;;;;3.86;61.55;100508.66;5202106;28;20417;-42
2022/03/31 00:31:21;;;;;;;9.80;4.32;;;;;;;3.82;61.49;100512.44;5197935;28;20873;-39
2022/03/31 00:33:55;;;;;;;4.90;4.22;;;;;;;3.74;61.26;100509.56;5196949;28;20942;-43
2022/03/31 00:36:27;;;;;;;12.20;6.05;;;;;;;3.61;61.55;100517.47;5195169;28;20427;-43
2022/03/31 00:41:50;;;;;;;9.07;4.27;;;;;;;3.40;62.08;100502.41;5216712;28;20405;-43
2022/03/31 00:44:23;;;;;;;7.82;3.72;;;;;;;3.43;62.03;100503.97;5193291;28;20420;-46
2022/03/31 00:46:57;;;;;;;8.32;4.70;;;;;;;3.22;61.67;100472.44;5199277;28;20898;-43
2022/03/31 00:49:33;;;;;;;6.32;4.28;;;;;;;3.34;61.82;100494.22;5197786;28;20431;-43
2022/03/31 00:52:07;;;;;;;10.15;4.93;;;;;;;3.34;61.79;100502.03;5193851;28;20481;-43
2022/03/31 00:54:42;;;;;;;7.32;4.00;;;;;;;3.32;62.16;100488.28;5205768;28;20506;-45
2022/03/31 00:57:15;;;;;;;10.00;5.07;;;;;;;3.28;61.99;100492.88;5197754;28;20932;-44
2022/03/31 00:59:48;;;;;;;8.27;4.88;;;;;;;3.26;61.98;100491.34;5204364;28;20900;-44
2022/03/31 01:02:20;;;;;;;6.45;4.28;;;;;;;3.19;61.92;100483.97;5192369;28;20426;-43
2022/03/31 01:04:54;;;;;;;8.97;4.20;;;;;;;3.17;62.17;100480.63;5189337;28;20441;-44
2022/03/31 01:07:26;;;;;;;8.52;5.75;;;;;;;3.13;62.42;100478.34;5199549;28;20505;-45
2022/03/31 01:09:59;;;;;;;7.97;4.43;;;;;;;3.04;62.40;100474.63;5199184;28;20534;-44
2022/03/31 01:12:32;;;;;;;9.35;4.55;;;;;;;3.02;62.54;100478.28;5188026;28;20950;-43
2022/03/31 01:15:08;;;;;;;9.77;4.72;;;;;;;2.99;62.46;100471.50;5193134;28;20853;-43
2022/03/31 01:17:42;;;;;;;5.80;3.80;;;;;;;3.01;62.66;100469.63;5198965;28;20833;-44
2022/03/31 01:20:20;;;;;;;9.13;4.32;;;;;;;2.98;62.40;100464.63;5217700;28;20771;-44
2022/03/31 01:22:53;;;;;;;7.55;4.97;;;;;;;2.99;62.60;100476.72;5196599;28;20422;-47
2022/03/31 01:25:27;;;;;;;8.13;4.60;;;;;;;3.04;62.57;100468.59;5202585;28;20423;-44
2022/03/31 01:27:59;;;;;;;6.13;4.35;;;;;;;2.99;62.49;100466.28;5206539;28;20884;-44
2022/03/31 01:30:31;;;;;;;8.35;4.70;;;;;;;3.12;62.48;100467.06;5198223;28;20519;-49
2022/03/31 01:33:04;;;;;;;8.27;5.00;;;;;;;3.14;62.53;100465.19;5200476;28;20487;-44
2022/03/31 01:35:36;;;;;;;8.93;4.47;;;;;;;3.11;62.42;100460.19;5205841;28;20500;-46
2022/03/31 01:38:09;;;;;;;7.00;3.90;;;;;;;3.16;62.39;100459.84;5200673;28;20439;-44
2022/03/31 01:40:42;;;;;;;10.10;4.13;;;;;;;3.17;62.63;100459.75;5202745;28;22457;-46
2022/03/31 01:43:15;;;;;;;9.65;4.50;;;;;;;3.11;62.71;100444.53;5205718;28;20509;-43
2022/03/31 01:45:48;;;;;;;8.47;4.63;;;;;;;3.06;62.82;100436.19;5199325;28;20496;-45
2022/03/31 01:48:21;;;;;;;6.32;3.97;;;;;;;3.16;62.67;100445.03;5197923;28;20973;-47
2022/03/31 01:50:53;;;;;;;7.97;4.93;;;;;;;3.23;62.63;100437.59;5191971;28;20405;-45
2022/03/31 01:53:26;;;;;;;10.07;4.97;;;;;;;3.25;62.23;100427.84;5196824;28;20409;-43
2022/03/31 01:56:00;;;;;;;7.80;4.38;;;;;;;3.25;62.51;100425.25;5205958;28;20421;-43
2022/03/31 01:58:32;;;;;;;7.47;3.95;;;;;;;3.34;62.79;100432.41;5197372;28;20766;-44
2022/03/31 02:01:06;;;;;;;9.35;5.47;;;;;;;3.37;62.46;100440.00;5198007;28;20419;-43
2022/03/31 02:03:38;;;;;;;5.93;4.50;;;;;;;3.43;62.57;100428.28;5200188;28;20454;-43
2022/03/31 02:06:11;;;;;;;9.43;4.97;;;;;;;3.53;62.70;100423.19;5199194;28;20488;-43
2022/03/31 02:08:43;;;;;;;10.52;5.32;;;;;;;3.60;62.51;100420.03;5200766;28;20481;-43
2022/03/31 02:11:17;;;;;;;12.13;5.93;;;;;;;3.56;62.30;100418.59;5205920;28;20551;-43
2022/03/31 02:13:53;;;;;;;8.73;4.85;;;;;;;3.65;62.29;100410.09;5199298;28;20906;-44
2022/03/31 02:16:25;;;;;;;6.75;4.95;;;;;;;3.69;62.22;100406.28;5203340;28;20407;-45
2022/03/31 02:18:57;;;;;;;9.05;5.28;;;;;;;3.76;62.40;100408.44;5204397;28;21103;-47
2022/03/31 02:21:30;;;;;;;10.15;5.63;;;;;;;3.84;62.32;100413.88;5204065;28;20890;-45
2022/03/31 02:24:03;;;;;;;7.50;5.20;;;;;;;3.87;62.06;100411.03;5206630;28;20513;-42
2022/03/31 02:26:37;;;;;;;12.15;4.85;;;;;;;3.77;62.25;100391.78;5208839;28;20804;-42
2022/03/31 02:29:11;;;;;;;7.57;4.60;;;;;;;3.86;62.37;100410.22;5203341;28;20516;-44
2022/03/31 02:31:44;;;;;;;7.85;5.13;;;;;;;3.88;62.43;100403.09;5199137;28;20407;-42
2022/03/31 02:34:17;;;;;;;9.93;4.85;;;;;;;3.88;62.72;100397.88;5203826;28;20407;-43
2022/03/31 02:36:49;;;;;;;7.70;4.88;;;;;;;3.90;62.64;100405.56;5193798;28;20491;-42
2022/03/31 02:39:22;;;;;;;6.68;4.68;;;;;;;3.89;62.77;100409.16;5205402;28;20421;-41
2022/03/31 02:41:57;;;;;;;8.50;4.57;;;;;;;3.90;62.52;100416.03;5197379;28;20634;-42
2022/03/31 02:44:29;;;;;;;9.43;5.60;;;;;;;3.95;62.77;100397.41;5204910;28;20407;-41
2022/03/31 02:47:02;;;;;;;6.88;4.45;;;;;;;4.01;62.73;100397.75;5192423;28;20456;-41
2022/03/31 02:49:34;;;;;;;10.80;5.63;;;;;;;4.01;62.51;100389.91;5198786;28;20510;-42
2022/03/31 02:52:08;;;;;;;7.07;4.22;;;;;;;4.00;62.86;100390.88;5198136;28;20430;-40
2022/03/31 02:57:32;;;;;;;8.13;4.73;;;;;;;4.03;62.94;100372.34;5182598;28;20423;-40
2022/03/31 03:00:06;;;;;;;13.52;5.03;;;;;;;4.02;62.78;100375.91;5204656;28;20439;-41
2022/03/31 03:02:38;;;;;;;10.00;5.43;;;;;;;3.94;63.10;100360.00;5214258;28;20984;-41
2022/03/31 03:05:11;;;;;;;7.97;4.75;;;;;;;4.06;62.96;100376.50;5219420;28;20862;-39
2022/03/31 03:07:43;;;;;;;10.65;5.57;;;;;;;4.11;62.80;100377.78;5199920;28;20485;-39
2022/03/31 03:10:15;;;;;;;7.60;4.75;;;;;;;4.15;62.67;100384.47;5209554;28;21815;-40
2022/03/31 03:12:50;;;;;;;10.77;5.10;;;;;;;4.11;62.87;100380.41;5203025;28;20410;-39
2022/03/31 03:15:22;;;;;;;14.80;5.18;;;;;;;4.18;62.74;100378.16;5194958;28;20409;-41
2022/03/31 03:17:55;;;;;;;11.20;5.50;;;;;;;4.22;62.88;100378.75;5195162;28;20417;-43
2022/03/31 03:20:28;;;;;;;7.40;4.90;;;;;;;4.20;63.16;100370.19;5202321;28;20491;-40
2022/03/31 03:23:00;;;;;;;6.53;5.00;;;;;;;4.27;63.01;100371.38;5192235;28;20422;-41
2022/03/31 03:25:32;;;;;;;16.63;6.47;;;;;;;4.30;62.77;100371.13;5193657;28;20983;-41
2022/03/31 03:28:08;;;;;;;12.40;5.97;;;;;;;4.33;62.90;100363.03;5202002;28;20421;-40
2022/03/31 03:30:40;;;;;;;14.90;5.60;;;;;;;4.32;63.01;100359.59;5197878;28;20417;-40
2022/03/31 03:33:13;;;;;;;11.52;5.25;;;;;;;4.31;63.03;100362.34;5190002;28;20407;-42
2022/03/31 03:35:46;;;;;;;9.88;5.65;;;;;;;4.33;63.15;100360.44;5208881;28;20417;-40
2022/03/31 03:38:18;;;;;;;11.38;5.45;;;;;;;4.37;62.87;100356.63;5215277;28;20435;-40
2022/03/31 03:40:51;;;;;;;13.77;6.57;;;;;;;4.36;62.92;100341.88;5216717;28;20412;-41
2022/03/31 03:43:25;;;;;;;9.63;6.05;;;;;;;4.40;62.96;100343.31;5190785;28;20924;-41
2022/03/31 03:45:57;;;;;;;10.48;5.32;;;;;;;4.43;62.89;100353.53;5193271;28;20431;-41
2022/03/31 03:48:30;;;;;;;13.10;5.53;;;;;;;3.72;63.10;100234.59;5200426;28;20778;-42
2022/03/31 03:51:02;;;;;;;8.85;5.13;;;;;;;4.41;63.10;100338.91;5205424;28;20431;-41
2022/03/31 03:53:35;;;;;;;8.98;5.28;;;;;;;4.39;62.86;100339.03;5214463;28;20929;-41
2022/03/31 03:56:07;;;;;;;11.50;5.60;;;;;;;4.38;63.35;100326.91;5204045;28;20902;-45
2022/03/31 03:58:41;;;;;;;12.73;5.35;;;;;;;4.35;63.19;100330.59;5201557;28;20805;-41
2022/03/31 04:01:13;;;;;;;10.52;5.75;;;;;;;4.39;63.39;100326.78;5203805;28;20884;-41
2022/03/31 04:03:46;;;;;;;8.80;5.72;;;;;;;4.44;63.27;100326.44;5195907;28;20459;-43
2022/03/31 04:06:18;;;;;;;12.60;6.18;;;;;;;4.37;63.27;100314.81;5191876;28;20430;-41
2022/03/31 04:08:51;;;;;;;9.20;5.30;;;;;;;4.45;63.35;100320.22;5199159;28;20502;-42
2022/03/31 04:11:23;;;;;;;8.32;4.68;;;;;;;4.47;63.42;100320.13;5200050;28;20518;-41
2022/03/31 04:13:57;;;;;;;10.80;5.70;;;;;;;4.46;63.28;100316.69;5198555;28;20517;-41
2022/03/31 04:16:29;;;;;;;14.75;6.55;;;;;;;4.26;63.28;100275.63;5191633;28;20504;-44
2022/03/31 04:19:04;;;;;;;13.13;6.47;;;;;;;4.48;63.43;100311.31;5199615;28;20848;-43
2022/03/31 04:21:37;;;;;;;9.65;4.75;;;;;;;4.50;63.20;100302.41;5220356;28;20419;-42
2022/03/31 04:24:10;;;;;;;11.65;5.00;;;;;;;4.53;63.38;100310.00;5217895;28;20514;-41
2022/03/31 04:26:42;;;;;;;11.00;5.13;;;;;;;4.55;63.35;100308.09;5214081;28;22219;-41
2022/03/31 04:29:16;;;;;;;9.80;5.60;;;;;;;4.54;63.29;100295.97;5218973;28;20435;-42
2022/03/31 04:31:49;;;;;;;15.03;6.53;;;;;;;4.55;63.29;100297.63;5214661;28;20409;-41
2022/03/31 04:34:22;;;;;;;13.30;5.32;;;;;;;4.62;63.37;100311.03;5204444;28;20461;-41
2022/03/31 04:36:55;;;;;;;14.25;4.90;;;;;;;4.62;63.46;100304.03;5189949;28;20406;-43
2022/03/31 04:39:27;;;;;;;10.52;5.32;;;;;;;4.59;63.58;100306.88;5196921;28;20423;-42
2022/03/31 04:42:00;;;;;;;10.05;4.72;;;;;;;4.57;63.55;100310.56;5194303;28;20402;-41
2022/03/31 04:44:33;;;;;;;17.77;5.67;;;;;;;4.59;63.66;100309.50;5201877;28;20423;-45
2022/03/31 04:47:06;;;;;;;14.27;5.05;;;;;;;4.61;63.54;100312.84;5202440;28;20441;-41
2022/03/31 04:49:39;;;;;;;9.93;5.15;;;;;;;4.69;63.13;100306.97;5215669;28;20603;-41
2022/03/31 04:52:11;;;;;;;8.98;5.45;;;;;;;4.71;63.23;100312.09;5214602;28;20511;-41
2022/03/31 04:54:44;;;;;;;16.83;6.07;;;;;;;4.70;63.33;100305.19;5216905;28;20479;-44
2022/03/31 04:57:20;;;;;;;11.18;5.40;;;;;;;4.75;63.37;100319.53;5217102;28;20420;-41
2022/03/31 04:59:54;;;;;;;11.27;6.38;;;;;;;4.81;63.47;100315.59;5194584;28;20491;-39
2022/03/31 05:02:26;;;;;;;13.27;6.23;;;;;;;4.85;63.03;100311.78;5200734;28;20537;-39
2022/03/31 05:04:58;;;;;;;14.07;5.72;;;;;;;4.67;63.44;100289.72;5205637;28;20464;-40
2022/03/31 05:07:31;;;;;;;14.98;5.80;;;;;;;4.89;63.41;100325.44;5202088;28;20846;-40
2022/03/31 05:10:04;;;;;;;15.50;6.25;;;;;;;4.92;63.48;100330.41;5200975;28;20436;-40
2022/03/31 05:12:36;;;;;;;14.82;6.00;;;;;;;4.93;63.52;100332.91;5205531;28;20514;-41
2022/03/31 05:15:11;;;;;;;12.97;5.50;;;;;;;4.89;63.61;100313.19;5197550;28;20414;-41
2022/03/31 05:17:43;;;;;;;9.27;5.68;;;;;;;4.95;63.74;100320.53;5213588;28;20848;-40
2022/03/31 05:20:16;;;;;;;13.88;6.10;;;;;;;4.95;63.64;100311.84;5214435;28;20420;-41
2022/03/31 05:22:49;;;;;;;6.35;5.40;;;;;;;4.90;63.67;100312.25;5209836;28;20411;-41
2022/03/31 05:25:21;;;;;;;12.57;5.68;;;;;;;4.95;63.54;100315.28;5230644;28;20410;-41
2022/03/31 05:27:59;;;;;;;10.32;4.85;;;;;;;4.95;63.65;100312.66;5203810;28;20488;-49
2022/03/31 05:30:34;;;;;;;10.85;5.00;;;;;;;4.87;63.51;100302.03;5213756;28;20413;-40
2022/03/31 05:33:08;;;;;;;9.30;5.15;;;;;;;4.97;63.62;100323.03;5227460;28;20721;-41
2022/03/31 05:35:40;;;;;;;9.13;5.60;;;;;;;4.96;63.88;100316.97;5225711;28;20503;-41
2022/03/31 05:38:13;;;;;;;14.55;5.60;;;;;;;4.97;63.78;100318.63;5223900;28;20412;-42
2022/03/31 05:40:46;;;;;;;13.15;5.03;;;;;;;4.83;63.68;100305.81;5219934;28;20449;-41
2022/03/31 05:43:21;;;;;;;11.10;4.20;;;;;;;4.79;64.19;100314.88;5212518;28;20479;-42
2022/03/31 05:45:54;;;;;;;11.23;4.45;;;;;;;4.59;64.59;100306.88;5215737;28;20780;-41
2022/03/31 05:48:27;;;;;;;8.88;5.55;;;;;;;4.46;64.59;100306.22;5230014;28;20419;-41
2022/03/31 05:51:00;;;;;;;9.38;4.60;;;;;;;4.36;64.43;100307.91;5226349;28;20461;-43
2022/03/31 05:53:33;;;;;;;8.85;5.10;;;;;;;4.35;64.72;100307.06;5203475;28;20770;-43
2022/03/31 05:56:06;;;;;;;8.43;5.10;;;;;;;4.20;64.51;100278.72;5200093;28;20509;-41
2022/03/31 05:58:39;;;;;;;7.35;4.85;;;;;;;4.38;64.54;100316.47;5200612;28;20506;-40
2022/03/31 06:01:13;;;;;;;13.98;5.50;;;;;;;4.36;64.45;100302.66;5187415;28;20427;-41
2022/03/31 06:03:45;;;;;;;10.63;5.22;;;;;;;4.48;64.50;100311.31;5209238;28;20415;-42
2022/03/31 06:06:18;;;;;;;9.18;6.10;;;;;;;4.56;64.21;100324.63;5219568;28;20419;-42
2022/03/31 06:08:50;;;;;;;10.73;4.80;;;;;;;4.54;64.20;100316.88;5212606;28;20498;-41
2022/03/31 06:11:23;;;;;;;8.20;5.38;;;;;;;4.55;64.22;100313.34;5199203;28;20501;-43
2022/03/31 06:13:55;;;;;;;10.85;5.97;;;;;;;4.53;64.33;100304.78;5206670;28;20502;-41
2022/03/31 06:16:30;;;;;;;13.40;5.30;;;;;;;4.51;64.52;100313.69;5202756;28;20782;-41
2022/03/31 06:19:03;;;;;;;8.90;4.97;;;;;;;4.53;64.56;100309.19;5204722;28;20451;-42
2022/03/31 06:21:36;;;;;;;11.80;6.25;;;;;;;4.54;64.61;100306.41;5213113;28;20421;-43
2022/03/31 06:24:09;;;;;;;13.27;7.45;;;;;;;4.50;64.51;100297.16;5204987;28;20417;-41
2022/03/31 06:26:42;;;;;;;11.68;5.53;;;;;;;4.55;64.21;100302.88;5205258;28;20428;-40
2022/03/31 06:29:15;;;;;;;12.43;5.70;;;;;;;4.60;64.39;100305.09;5202237;28;20468;-40
2022/03/31 06:31:49;;;;;;;8.85;6.35;;;;;;;4.63;64.39;100300.44;5202063;28;20419;-40
2022/03/31 06:34:22;;;;;;;11.73;5.60;;;;;;;4.65;64.39;100296.91;5201516;28;20766;-41
2022/03/31 06:36:55;;;;;;;14.43;6.43;;;;;;;4.66;64.39;100299.38;5199033;28;20443;-42
2022/03/31 06:39:28;;;;;;;9.23;5.75;;;;;;;4.74;64.17;100291.75;5187000;28;20925;-40
2022/03/31 06:42:00;;;;;;;14.32;6.32;;;;;;;4.78;64.29;100300.16;5189898;28;20528;-40
2022/03/31 06:44:33;;;;;;;10.63;5.95;;;;;;;4.73;64.24;100297.09;5208345;28;20517;-42
2022/03/31 06:47:07;;;;;;;11.48;5.90;;;;;;;4.75;64.23;100308.25;5204513;28;20495;-41
2022/03/31 06:49:39;;;;;;;10.43;5.60;;;;;;;4.79;64.38;100327.97;5216748;28;20758;-40
2022/03/31 06:52:12;;;;;;;7.82;5.18;;;;;;;4.77;64.44;100308.94;5199064;28;20423;-41
2022/03/31 06:54:44;;;;;;;8.20;4.97;;;;;;;4.67;64.54;100287.13;5193959;28;20466;-42
2022/03/31 06:57:17;;;;;;;9.33;4.90;;;;;;;4.74;64.41;100303.97;5199253;28;20898;-42
2022/03/31 06:59:52;;;;;;;7.35;5.07;;;;;;;4.68;64.66;100307.94;5206558;28;20440;-40
2022/03/31 07:02:26;;;;;;;9.15;4.80;;;;;;;4.65;64.87;100315.19;5201494;28;20476;-42
2022/03/31 07:04:58;;;;;;;8.30;6.20;;;;;;;4.65;64.79;100312.59;5212532;28;20416;-42
2022/03/31 07:07:31;;;;;;;11.55;7.43;;;;;;;4.73;64.58;100310.16;5222514;28;20441;-42
2022/03/31 07:10:03;;;;;;;9.17;5.90;;;;;;;4.80;64.63;100300.84;5206768;28;20409;-42
2022/03/31 07:12:39;;;;;;;10.00;4.80;;;;;;;4.79;64.69;100288.72;5194161;28;20424;-43
2022/03/31 07:15:13;;;;;;;8.55;4.95;;;;;;;4.99;64.66;100298.41;5213684;28;20451;-41
2022/03/31 07:17:47;;;;;;;7.57;5.90;;;;;;;5.16;64.45;100301.38;5189392;28;20535;-44
2022/03/31 07:20:20;;;;;;;12.15;5.13;;;;;;;5.30;64.27;100293.22;5192673;28;20407;-42
2022/03/31 07:22:52;;;;;;;9.60;6.00;;;;;;;5.49;64.47;100293.31;5210905;28;20916;-43
2022/03/31 07:25:25;;;;;;;7.20;5.25;;;;;;;5.60;63.98;100286.31;5212308;28;20436;-42
2022/03/31 07:27:58;;;;;;;6.77;5.47;;;;;;;5.65;64.16;100290.22;5196841;28;20476;-41
2022/03/31 07:30:32;;;;;;;7.07;5.47;;;;;;;5.65;64.38;100286.78;5195282;28;20404;-42
2022/03/31 07:33:08;;;;;;;5.65;5.03;;;;;;;5.42;64.51;100246.81;5192196;28;20456;-43
2022/03/31 07:35:42;;;;;;;6.00;4.95;;;;;;;5.88;64.32;100288.22;5201133;28;20435;-43
2022/03/31 07:38:15;;;;;;;6.57;4.70;;;;;;;5.97;64.36;100276.97;5198954;28;20413;-41
2022/03/31 07:40:48;;;;;;;5.85;4.40;;;;;;;6.03;64.44;100277.41;5197391;28;20449;-42
2022/03/31 07:43:20;;;;;;;4.88;4.03;;;;;;;6.26;64.45;100278.84;5208672;28;20446;-41
2022/03/31 07:45:52;;;;;;;5.60;3.47;;;;;;;6.47;64.45;100273.47;5213745;28;20485;-39
2022/03/31 07:48:36;;;;;;;8.05;4.03;;;;;;;6.67;64.30;100276.94;5194456;28;20425;-41
2022/03/31 07:51:08;;;;;;;3.55;3.10;;;;;;;7.04;64.03;100273.59;5200950;28;20471;-42
2022/03/31 07:53:41;;;;;;;3.00;2.70;;;;;;;7.13;63.82;100275.38;5193779;28;20961;-42
2022/03/31 07:56:13;;;;;;;4.03;2.73;;;;;;;7.24;64.07;100272.56;5209437;28;20920;-42
2022/03/31 07:58:46;;;;;;;3.15;2.72;;;;;;;7.39;63.84;100270.31;5197137;28;20400;-41
2022/03/31 08:01:18;;;;;;;2.92;2.60;;;;;;;7.36;63.81;100263.56;5212245;28;20484;-41
2022/03/31 08:03:52;;;;;;;3.50;2.50;;;;;;;7.16;64.02;100256.72;5202875;28;20443;-41
2022/03/31 08:06:25;;;;;;;2.42;2.22;;;;;;;6.93;64.39;100259.63;5192905;28;20508;-42
2022/03/31 08:08:57;;;;;;;6.57;2.67;;;;;;;6.47;64.52;100232.34;5213305;28;21074;-44
2022/03/31 08:11:33;;;;;;;3.30;2.55;;;;;;;6.37;64.92;100270.00;5209990;28;20488;-41
2022/03/31 08:14:05;;;;;;;2.88;2.22;;;;;;;6.30;64.72;100266.28;5208507;28;20508;-41
2022/03/31 08:16:38;;;;;;;3.13;2.83;;;;;;;6.24;64.91;100262.41;5191746;28;20520;-41
2022/03/31 08:19:11;;;;;;;2.95;2.75;;;;;;;6.17;64.91;100267.38;5190416;28;20465;-42
2022/03/31 08:21:44;;;;;;;3.38;3.00;;;;;;;6.13;64.64;100265.13;5195533;28;20492;-42
2022/03/31 08:24:17;;;;;;;3.60;3.30;;;;;;;6.05;64.48;100262.38;5189732;28;21090;-42
2022/03/31 08:26:50;;;;;;;4.07;3.63;;;;;;;6.05;64.93;100262.38;5209013;28;20488;-41
2022/03/31 08:29:23;;;;;;;3.88;3.58;;;;;;;6.06;64.38;100266.66;5206785;28;20793;-42
2022/03/31 08:31:57;;;;;;;3.72;3.40;;;;;;;6.04;64.53;100271.19;5185574;28;20431;-40
2022/03/31 08:34:31;;;;;;;3.80;3.50;;;;;;;5.97;64.33;100260.41;5180417;28;20423;-41
2022/03/31 08:37:04;;;;;;;3.63;3.33;;;;;;;5.97;64.43;100271.72;5189394;28;20492;-40
2022/03/31 08:39:36;;;;;;;4.25;3.78;;;;;;;5.89;64.33;100268.94;5196169;28;20453;-40
2022/03/31 08:42:09;;;;;;;4.47;4.07;;;;;;;5.98;64.49;100283.88;5191018;28;20521;-40
2022/03/31 08:44:42;;;;;;;5.63;4.33;;;;;;;5.81;64.32;100255.66;5194446;28;20507;-43
2022/03/31 08:47:18;;;;;;;3.58;3.28;;;;;;;6.06;64.18;100277.13;5197076;28;20436;-42
2022/03/31 08:49:52;;;;;;;4.97;3.47;;;;;;;6.09;64.12;100272.44;5192648;28;20424;-41
2022/03/31 08:52:25;;;;;;;4.30;3.90;;;;;;;5.93;63.81;100252.00;5192241;28;20483;-41
2022/03/31 08:54:57;;;;;;;4.72;4.25;;;;;;;6.06;64.10;100275.34;5190035;28;20450;-40
2022/03/31 08:57:41;;;;;;;6.60;3.70;;;;;;;5.99;63.83;100269.81;5198783;28;20496;-42
2022/03/31 09:00:16;;;;;;;4.70;4.30;;;;;;;5.91;63.92;100261.75;5188238;28;20421;-42
2022/03/31 09:03:00;;;;;;;4.60;4.20;;;;;;;6.05;63.99;100262.38;5190345;28;20417;-43
2022/03/31 09:05:41;;;;;;;5.88;4.00;;;;;;;6.00;63.80;100249.66;5188043;28;20413;-41
2022/03/31 09:08:16;;;;;;;4.50;4.10;;;;;;;5.86;63.73;100227.28;5196502;28;20852;-41
2022/03/31 09:10:51;;;;;;;5.00;4.60;;;;;;;6.02;63.93;100247.75;5201834;28;20519;-42
2022/03/31 09:13:26;;;;;;;4.85;4.45;;;;;;;5.97;63.55;100237.66;5203147;28;20908;-42
2022/03/31 09:16:01;;;;;;;5.57;5.07;;;;;;;6.24;63.50;100263.22;5206825;28;20506;-40
2022/03/31 09:18:37;;;;;;;5.22;4.72;;;;;;;6.37;63.29;100247.22;5209175;28;20420;-41
2022/03/31 09:21:12;;;;;;;5.55;4.22;;;;;;;6.40;63.33;100241.72;5212497;28;20907;-44
2022/03/31 09:23:47;;;;;;;6.22;4.47;;;;;;;6.53;63.17;100251.09;5198804;28;20442;-43
2022/03/31 09:26:20;;;;;;;4.95;4.50;;;;;;;6.36;63.38;100239.53;5202442;28;20431;-41
2022/03/31 09:28:52;;;;;;;5.20;4.68;;;;;;;6.38;63.29;100251.53;5221757;28;21026;-41
2022/03/31 09:31:27;;;;;;;5.25;4.70;;;;;;;6.34;63.22;100247.50;5189244;28;20547;-42
2022/03/31 09:34:00;;;;;;;5.95;4.95;;;;;;;6.47;63.42;100258.59;5212128;28;20409;-42
2022/03/31 09:36:36;;;;;;;5.63;5.03;;;;;;;6.44;63.20;100269.34;5211682;28;20460;-41
2022/03/31 09:39:13;;;;;;;4.97;4.28;;;;;;;6.39;63.32;100247.94;5213810;28;21252;-41
2022/03/31 09:41:50;;;;;;;5.07;4.53;;;;;;;6.41;63.31;100253.88;5196072;28;20425;-43
2022/03/31 09:44:23;;;;;;;5.85;5.03;;;;;;;6.40;63.45;100251.38;5198084;28;20755;-42
2022/03/31 09:46:56;;;;;;;5.55;4.95;;;;;;;6.39;63.34;100240.06;5190628;28;20500;-41
2022/03/31 09:49:29;;;;;;;6.13;5.53;;;;;;;6.45;63.16;100252.63;5199193;28;20978;-41
2022/03/31 09:52:07;;;;;;;5.68;5.07;;;;;;;6.56;63.13;100250.84;5196002;28;20440;-41
2022/03/31 09:54:40;;;;;;;5.83;5.30;;;;;;;6.54;63.03;100243.13;5200147;28;20531;-43
2022/03/31 09:57:12;;;;;;;8.43;5.03;;;;;;;6.28;63.14;100210.50;5199148;28;20421;-41
2022/03/31 09:59:50;;;;;;;5.95;5.32;;;;;;;6.34;63.17;100215.22;5204730;28;20498;-41
2022/03/31 10:02:23;;;;;;;7.63;5.50;;;;;;;6.62;63.01;100250.28;5207701;28;20430;-42
2022/03/31 10:04:57;;;;;;;5.60;5.07;;;;;;;6.60;63.07;100242.56;5186907;28;20894;-42
2022/03/31 10:07:32;;;;;;;5.50;4.80;;;;;;;6.50;63.15;100238.25;5205639;28;20494;-40
2022/03/31 10:10:05;;;;;;;6.65;5.35;;;;;;;6.53;62.98;100230.13;5185455;28;20567;-42
2022/03/31 10:12:45;;;;;;;6.50;4.53;;;;;;;6.55;63.13;100244.75;5193206;28;20510;-43
2022/03/31 10:15:27;;;;;;;7.20;5.93;;;;;;;6.68;62.87;100247.09;5212351;28;20483;-41
2022/03/31 10:18:00;;;;;;;6.00;5.32;;;;;;;6.79;62.81;100252.22;5178007;28;20487;-41
2022/03/31 10:20:33;;;;;;;6.05;5.45;;;;;;;6.79;62.77;100244.34;5188195;28;20765;-41
2022/03/31 10:25:57;;;;;;;8.30;5.43;;;;;;;6.85;62.66;100248.22;5198095;28;20782;-42
2022/03/31 10:28:30;;;;;;;6.38;5.75;;;;;;;6.97;62.74;100243.59;5193144;28;20522;-41
2022/03/31 10:31:05;;;;;;;5.70;5.10;;;;;;;7.06;62.45;100237.50;5196887;28;20440;-43
2022/03/31 10:33:42;;;;;;;5.57;4.95;;;;;;;7.13;62.28;100244.69;5192219;28;20781;-41
2022/03/31 10:36:19;;;;;;;6.47;5.47;;;;;;;7.26;62.34;100239.13;5205382;28;20513;-41
2022/03/31 10:38:59;;;;;;;5.37;4.73;;;;;;;7.21;62.54;100235.25;5212190;28;20764;-40
2022/03/31 10:41:32;;;;;;;6.22;5.63;;;;;;;7.21;62.50;100233.47;5190326;28;20516;-40
2022/03/31 10:44:16;;;;;;;6.10;5.38;;;;;;;7.21;62.74;100246.59;5204585;28;20780;-41
2022/03/31 10:47:02;;;;;;;5.70;4.75;;;;;;;7.26;62.71;100241.75;5206640;28;20497;-41
2022/03/31 10:49:36;;;;;;;6.55;5.43;;;;;;;7.29;62.58;100243.28;5198161;28;21214;-41
2022/03/31 10:52:23;;;;;;;6.53;5.60;;;;;;;7.41;62.58;100246.56;5199215;28;20427;-42
2022/03/31 10:55:07;;;;;;;6.20;5.60;;;;;;;7.42;62.64;100243.75;5212679;28;20427;-42
2022/03/31 10:57:43;;;;;;;6.88;6.03;;;;;;;7.33;62.66;100240.19;5209341;28;21901;-42
2022/03/31 11:00:17;;;;;;;5.25;4.75;;;;;;;7.25;62.88;100247.97;5189815;28;20511;-42
2022/03/31 11:02:52;;;;;;;8.93;6.10;;;;;;;7.17;63.11;100234.72;5195775;28;20451;-43
2022/03/31 11:05:25;;;;;;;9.05;7.13;;;;;;;7.14;63.16;100235.00;5216198;28;20484;-39
2022/03/31 11:08:08;;;;;;;8.98;7.30;;;;;;;7.21;63.12;100236.09;5209718;28;20477;-40
2022/03/31 11:10:44;;;;;;;10.23;7.03;;;;;;;7.29;62.94;100244.09;5214893;28;20756;-42
2022/03/31 11:13:18;;;;;;;8.35;6.47;;;;;;;7.36;62.80;100237.28;5194559;28;20959;-42
2022/03/31 11:15:56;;;;;;;8.23;6.97;;;;;;;7.23;62.81;100218.41;5196349;28;20428;-42
2022/03/31 11:19:07;;;;;;;8.60;7.13;;;;;;;7.29;62.74;100238.84;5191024;28;20486;-42
2022/03/31 11:21:42;;;;;;;8.70;7.00;;;;;;;7.27;62.66;100246.03;5198261;28;20427;-43
2022/03/31 11:24:15;;;;;;;7.73;6.63;;;;;;;7.20;62.77;100223.94;5191317;28;20850;-42
2022/03/31 11:26:50;;;;;;;14.15;11.50;;;;;;;7.29;62.71;100238.84;5203850;28;20435;-43
2022/03/31 11:29:26;;;;;;;7.18;6.03;;;;;;;7.29;62.69;100236.22;5208532;28;20451;-44
2022/03/31 11:31:59;;;;;;;6.75;5.45;;;;;;;7.18;62.66;100236.38;5194309;28;20540;-43
2022/03/31 11:34:31;;;;;;;5.78;5.28;;;;;;;6.99;62.64;100231.19;5207130;28;20504;-42
2022/03/31 11:37:04;;;;;;;4.50;4.10;;;;;;;6.83;62.80;100232.59;5200367;28;20429;-42
2022/03/31 11:39:36;;;;;;;6.35;5.75;;;;;;;6.53;62.94;100198.63;5201489;28;20516;-42
2022/03/31 11:42:11;;;;;;;5.35;4.90;;;;;;;6.56;62.83;100214.09;5205199;28;20424;-41
2022/03/31 11:44:44;;;;;;;4.38;4.07;;;;;;;6.52;62.82;100233.72;5212238;28;20498;-43
2022/03/31 11:47:20;;;;;;;4.97;4.47;;;;;;;6.61;62.87;100230.25;5190617;28;20530;-43
2022/03/31 11:50:01;;;;;;;5.05;4.65;;;;;;;6.61;62.91;100228.47;5199198;28;20429;-41
2022/03/31 11:52:35;;;;;;;3.95;3.58;;;;;;;6.46;62.85;100225.41;5189612;28;20448;-43
2022/03/31 11:55:14;;;;;;;3.95;3.65;;;;;;;6.41;62.87;100237.28;5195240;28;20419;-43
2022/03/31 11:57:54;;;;;;;5.28;4.78;;;;;;;6.15;63.21;100234.38;5190878;28;20502;-42
2022/03/31 12:00:30;;;;;;;5.13;4.70;;;;;;;6.27;63.25;100238.53;5188142;28;21029;-40
2022/03/31 12:03:05;;;;;;;5.50;5.00;;;;;;;6.00;63.08;100200.69;5189643;28;21045;-43
2022/03/31 12:05:38;;;;;;;4.97;4.57;;;;;;;6.24;63.14;100241.44;5202693;28;20460;-42
2022/03/31 12:08:11;;;;;;;4.10;3.70;;;;;;;6.16;62.91;100241.28;5207346;28;20427;-43
2022/03/31 12:10:43;;;;;;;4.57;4.18;;;;;;;5.99;63.06;100238.34;5210321;28;20470;-41